sensor_id;sensor_type;location;lat;lon;timestamp;pressure;altitude;pressure_sealevel;temperature;humidity
49759;BME280;35654;46.080;11.118;2023-04-03T00:00:32;99127.91;;;11.78;39.67
49759;BME280;35654;46.080;11.118;2023-04-03T00:02:59;99133.25;;;11.75;40.49
49759;BME280;35654;46.080;11.118;2023-04-03T00:05:25;99122.25;;;11.61;44.38
49759;BME280;35654;46.080;11.118;2023-04-03T00:07:52;99130.31;;;11.44;46.46
49759;BME280;35654;46.080;11.118;2023-04-03T00:10:18;99128.91;;;11.33;47.80
49759;BME280;35654;46.080;11.118;2023-04-03T00:12:45;99124.91;;;11.25;48.99
49759;BME280;35654;46.080;11.118;2023-04-03T00:15:12;99119.66;;;11.15;48.31
49759;BME280;35654;46.080;11.118;2023-04-03T00:17:38;99122.72;;;11.14;48.09
49759;BME280;35654;46.080;11.118;2023-04-03T00:20:05;99124.41;;;11.09;43.25
49759;BME280;35654;46.080;11.118;2023-04-03T00:22:32;99124.91;;;11.11;43.23
49759;BME280;35654;46.080;11.118;2023-04-03T00:24:59;99124.31;;;11.15;42.49
49759;BME280;35654;46.080;11.118;2023-04-03T00:27:25;99120.75;;;11.14;42.58
49759;BME280;35654;46.080;11.118;2023-04-03T00:29:52;99117.03;;;11.10;42.39
49759;BME280;35654;46.080;11.118;2023-04-03T00:32:19;99126.84;;;11.11;42.19
49759;BME280;35654;46.080;11.118;2023-04-03T00:34:48;99113.16;;;11.11;42.02
49759;BME280;35654;46.080;11.118;2023-04-03T00:37:15;99126.78;;;11.16;41.69
49759;BME280;35654;46.080;11.118;2023-04-03T00:39:42;99119.03;;;11.18;41.69
49759;BME280;35654;46.080;11.118;2023-04-03T00:42:08;99123.72;;;11.18;41.66
49759;BME280;35654;46.080;11.118;2023-04-03T00:47:00;99119.38;;;11.17;41.48
49759;BME280;35654;46.080;11.118;2023-04-03T00:49:27;99118.22;;;11.18;41.64
49759;BME280;35654;46.080;11.118;2023-04-03T00:51:54;99118.84;;;11.15;41.76
49759;BME280;35654;46.080;11.118;2023-04-03T00:54:22;99119.66;;;11.15;41.50
49759;BME280;35654;46.080;11.118;2023-04-03T00:56:49;99120.75;;;11.14;41.30
49759;BME280;35654;46.080;11.118;2023-04-03T00:59:19;99110.41;;;11.11;41.29
49759;BME280;35654;46.080;11.118;2023-04-03T01:01:48;99114.56;;;11.08;41.36
49759;BME280;35654;46.080;11.118;2023-04-03T01:04:31;99113.78;;;11.08;41.64
49759;BME280;35654;46.080;11.118;2023-04-03T01:06:59;99110.81;;;11.04;41.62
49759;BME280;35654;46.080;11.118;2023-04-03T01:09:27;99108.19;;;10.99;41.91
49759;BME280;35654;46.080;11.118;2023-04-03T01:11:54;99109.09;;;10.95;42.11
49759;BME280;35654;46.080;11.118;2023-04-03T01:14:38;99110.50;;;10.92;42.15
49759;BME280;35654;46.080;11.118;2023-04-03T01:17:21;99111.13;;;10.89;42.40
49759;BME280;35654;46.080;11.118;2023-04-03T01:19:53;99104.91;;;10.84;42.69
49759;BME280;35654;46.080;11.118;2023-04-03T01:22:26;99103.09;;;10.79;42.92
49759;BME280;35654;46.080;11.118;2023-04-03T01:24:56;99104.03;;;10.75;43.00
49759;BME280;35654;46.080;11.118;2023-04-03T01:27:23;99105.41;;;10.72;42.94
49759;BME280;35654;46.080;11.118;2023-04-03T01:29:49;99103.28;;;10.69;42.91
49759;BME280;35654;46.080;11.118;2023-04-03T01:32:16;99109.38;;;10.66;42.86
49759;BME280;35654;46.080;11.118;2023-04-03T01:34:43;99103.38;;;10.64;42.98
49759;BME280;35654;46.080;11.118;2023-04-03T01:37:10;99104.78;;;10.62;43.16
49759;BME280;35654;46.080;11.118;2023-04-03T01:39:36;99107.25;;;10.63;43.12
49759;BME280;35654;46.080;11.118;2023-04-03T01:42:03;99104.78;;;10.62;43.06
49759;BME280;35654;46.080;11.118;2023-04-03T01:44:30;99102.66;;;10.59;43.24
49759;BME280;35654;46.080;11.118;2023-04-03T01:46:57;99098.59;;;10.56;43.40
49759;BME280;35654;46.080;11.118;2023-04-03T01:49:24;99102.53;;;10.50;43.65
49759;BME280;35654;46.080;11.118;2023-04-03T01:51:50;99106.19;;;10.45;43.80
49759;BME280;35654;46.080;11.118;2023-04-03T01:54:17;99103.44;;;10.45;43.74
49759;BME280;35654;46.080;11.118;2023-04-03T01:56:43;99107.50;;;10.48;43.64
49759;BME280;35654;46.080;11.118;2023-04-03T01:59:10;99108.91;;;10.45;43.61
49759;BME280;35654;46.080;11.118;2023-04-03T02:01:36;99116.31;;;10.45;43.48
49759;BME280;35654;46.080;11.118;2023-04-03T02:04:03;99118.81;;;10.41;43.45
49759;BME280;35654;46.080;11.118;2023-04-03T02:06:29;99114.25;;;10.37;43.75
49759;BME280;35654;46.080;11.118;2023-04-03T02:08:56;99103.91;;;10.34;43.84
49759;BME280;35654;46.080;11.118;2023-04-03T02:11:23;99100.16;;;10.30;43.78
49759;BME280;35654;46.080;11.118;2023-04-03T02:13:50;99105.19;;;10.23;44.19
49759;BME280;35654;46.080;11.118;2023-04-03T02:16:16;99093.00;;;10.15;44.36
49759;BME280;35654;46.080;11.118;2023-04-03T02:18:43;99093.56;;;10.12;44.22
49759;BME280;35654;46.080;11.118;2023-04-03T02:21:10;99095.50;;;10.12;44.09
49759;BME280;35654;46.080;11.118;2023-04-03T02:23:36;99093.06;;;10.10;44.47
49759;BME280;35654;46.080;11.118;2023-04-03T02:26:04;99084.91;;;10.05;44.51
49759;BME280;35654;46.080;11.118;2023-04-03T02:28:31;99098.41;;;10.02;44.70
49759;BME280;35654;46.080;11.118;2023-04-03T02:30:58;99106.06;;;10.00;44.61
49759;BME280;35654;46.080;11.118;2023-04-03T02:33:25;99098.50;;;9.97;44.55
49759;BME280;35654;46.080;11.118;2023-04-03T02:35:55;99103.97;;;9.97;44.46
49759;BME280;35654;46.080;11.118;2023-04-03T02:38:26;99100.41;;;9.96;44.48
49759;BME280;35654;46.080;11.118;2023-04-03T02:40:51;99103.72;;;9.93;44.32
49759;BME280;35654;46.080;11.118;2023-04-03T02:43:17;99100.19;;;9.92;44.46
49759;BME280;35654;46.080;11.118;2023-04-03T02:45:44;99096.13;;;9.90;44.36
49759;BME280;35654;46.080;11.118;2023-04-03T02:48:11;99096.41;;;9.88;44.37
49759;BME280;35654;46.080;11.118;2023-04-03T02:50:38;99104.09;;;9.86;44.61
49759;BME280;35654;46.080;11.118;2023-04-03T02:53:05;99105.19;;;9.85;44.88
49759;BME280;35654;46.080;11.118;2023-04-03T02:55:31;99094.88;;;9.82;44.84
49759;BME280;35654;46.080;11.118;2023-04-03T02:57:58;99094.66;;;9.79;45.07
49759;BME280;35654;46.080;11.118;2023-04-03T03:00:24;99097.16;;;9.75;45.21
49759;BME280;35654;46.080;11.118;2023-04-03T03:02:51;99103.22;;;9.72;45.36
49759;BME280;35654;46.080;11.118;2023-04-03T03:05:17;99095.81;;;9.73;45.35
49759;BME280;35654;46.080;11.118;2023-04-03T03:07:44;99095.59;;;9.69;45.28
49759;BME280;35654;46.080;11.118;2023-04-03T03:10:10;99092.94;;;9.64;45.54
49759;BME280;35654;46.080;11.118;2023-04-03T03:12:37;99099.81;;;9.62;45.54
49759;BME280;35654;46.080;11.118;2023-04-03T03:15:03;99096.25;;;9.61;45.65
49759;BME280;35654;46.080;11.118;2023-04-03T03:17:30;99098.75;;;9.58;45.91
49759;BME280;35654;46.080;11.118;2023-04-03T03:19:55;99090.66;;;9.53;46.06
49759;BME280;35654;46.080;11.118;2023-04-03T03:22:23;99092.06;;;9.50;46.06
49759;BME280;35654;46.080;11.118;2023-04-03T03:24:50;99091.81;;;9.47;46.20
49759;BME280;35654;46.080;11.118;2023-04-03T03:27:15;99089.16;;;9.42;46.29
49759;BME280;35654;46.080;11.118;2023-04-03T03:29:42;99092.47;;;9.38;46.50
49759;BME280;35654;46.080;11.118;2023-04-03T03:32:08;99091.16;;;9.36;46.78
49759;BME280;35654;46.080;11.118;2023-04-03T03:34:35;99091.28;;;9.26;46.99
49759;BME280;35654;46.080;11.118;2023-04-03T03:37:01;99093.78;;;9.22;46.98
49759;BME280;35654;46.080;11.118;2023-04-03T03:39:28;99090.22;;;9.22;46.97
49759;BME280;35654;46.080;11.118;2023-04-03T03:41:55;99096.06;;;9.15;47.30
49759;BME280;35654;46.080;11.118;2023-04-03T03:44:21;99091.72;;;9.14;47.34
49759;BME280;35654;46.080;11.118;2023-04-03T03:46:48;99093.09;;;9.12;47.36
49759;BME280;35654;46.080;11.118;2023-04-03T03:49:15;99101.00;;;9.13;47.33
49759;BME280;35654;46.080;11.118;2023-04-03T03:51:41;99093.34;;;9.15;47.11
49759;BME280;35654;46.080;11.118;2023-04-03T03:54:09;99101.31;;;9.12;47.41
49759;BME280;35654;46.080;11.118;2023-04-03T03:56:36;99089.88;;;9.10;47.34
49759;BME280;35654;46.080;11.118;2023-04-03T03:59:02;99086.31;;;9.09;47.35
49759;BME280;35654;46.080;11.118;2023-04-03T04:01:29;99090.06;;;9.13;47.43
49759;BME280;35654;46.080;11.118;2023-04-03T04:03:56;99096.34;;;9.14;47.70
49759;BME280;35654;46.080;11.118;2023-04-03T04:06:23;99096.13;;;9.10;47.59
49759;BME280;35654;46.080;11.118;2023-04-03T04:08:50;99103.56;;;9.05;48.04
49759;BME280;35654;46.080;11.118;2023-04-03T04:11:16;99108.81;;;9.01;48.16
49759;BME280;35654;46.080;11.118;2023-04-03T04:13:43;99103.63;;;9.00;48.46
49759;BME280;35654;46.080;11.118;2023-04-03T04:16:10;99108.56;;;8.98;48.57
49759;BME280;35654;46.080;11.118;2023-04-03T04:18:36;99102.88;;;8.94;48.89
49759;BME280;35654;46.080;11.118;2023-04-03T04:21:03;99115.50;;;8.90;49.15
49759;BME280;35654;46.080;11.118;2023-04-03T04:23:29;99113.59;;;8.86;49.21
49759;BME280;35654;46.080;11.118;2023-04-03T04:25:56;99117.47;;;8.85;49.61
49759;BME280;35654;46.080;11.118;2023-04-03T04:28:23;99110.69;;;8.77;50.07
49759;BME280;35654;46.080;11.118;2023-04-03T04:30:49;99118.94;;;8.72;49.94
49759;BME280;35654;46.080;11.118;2023-04-03T04:33:16;99111.63;;;8.67;49.84
49759;BME280;35654;46.080;11.118;2023-04-03T04:35:42;99112.25;;;8.59;50.39
49759;BME280;35654;46.080;11.118;2023-04-03T04:38:09;99113.66;;;8.57;50.84
49759;BME280;35654;46.080;11.118;2023-04-03T04:40:36;99117.75;;;8.54;49.92
49759;BME280;35654;46.080;11.118;2023-04-03T04:43:04;99114.50;;;8.52;50.69
49759;BME280;35654;46.080;11.118;2023-04-03T04:45:31;99108.28;;;8.47;50.83
49759;BME280;35654;46.080;11.118;2023-04-03T04:47:57;99116.78;;;8.45;50.33
49759;BME280;35654;46.080;11.118;2023-04-03T04:50:24;99111.88;;;8.42;50.60
49759;BME280;35654;46.080;11.118;2023-04-03T04:52:50;99125.78;;;8.46;50.60
49759;BME280;35654;46.080;11.118;2023-04-03T04:55:17;99120.31;;;8.46;50.69
49759;BME280;35654;46.080;11.118;2023-04-03T04:57:44;99117.84;;;8.44;50.89
49759;BME280;35654;46.080;11.118;2023-04-03T05:00:11;99121.09;;;8.46;51.33
49759;BME280;35654;46.080;11.118;2023-04-03T05:02:37;99121.41;;;8.45;51.65
49759;BME280;35654;46.080;11.118;2023-04-03T05:05:04;99121.69;;;8.43;51.99
49759;BME280;35654;46.080;11.118;2023-04-03T05:07:31;99126.03;;;8.44;51.57
49759;BME280;35654;46.080;11.118;2023-04-03T05:09:57;99115.13;;;8.44;52.14
49759;BME280;35654;46.080;11.118;2023-04-03T05:12:24;99120.34;;;8.41;52.30
49759;BME280;35654;46.080;11.118;2023-04-03T05:14:51;99135.03;;;8.45;52.19
49759;BME280;35654;46.080;11.118;2023-04-03T05:17:17;99127.19;;;8.38;52.34
49759;BME280;35654;46.080;11.118;2023-04-03T05:19:44;99129.69;;;8.35;52.69
49759;BME280;35654;46.080;11.118;2023-04-03T05:22:10;99129.91;;;8.38;52.59
49759;BME280;35654;46.080;11.118;2023-04-03T05:24:37;99127.94;;;8.44;52.26
49759;BME280;35654;46.080;11.118;2023-04-03T05:27:03;99136.63;;;8.51;51.48
49759;BME280;35654;46.080;11.118;2023-04-03T05:29:30;99129.47;;;8.55;51.33
49759;BME280;35654;46.080;11.118;2023-04-03T05:31:57;99133.56;;;8.57;51.72
49759;BME280;35654;46.080;11.118;2023-04-03T05:34:23;99135.44;;;8.62;51.90
49759;BME280;35654;46.080;11.118;2023-04-03T05:36:50;99131.31;;;8.64;52.04
49759;BME280;35654;46.080;11.118;2023-04-03T05:39:16;99123.66;;;8.66;51.94
49759;BME280;35654;46.080;11.118;2023-04-03T05:41:43;99127.72;;;8.69;51.39
49759;BME280;35654;46.080;11.118;2023-04-03T05:44:09;99124.41;;;8.72;50.87
49759;BME280;35654;46.080;11.118;2023-04-03T05:46:35;99136.59;;;8.79;50.57
49759;BME280;35654;46.080;11.118;2023-04-03T05:49:01;99132.44;;;8.87;50.08
49759;BME280;35654;46.080;11.118;2023-04-03T05:51:34;99135.63;;;8.94;49.54
49759;BME280;35654;46.080;11.118;2023-04-03T05:54:09;99129.41;;;8.89;49.43
49759;BME280;35654;46.080;11.118;2023-04-03T05:56:39;99128.91;;;8.87;49.76
49759;BME280;35654;46.080;11.118;2023-04-03T05:59:05;99127.19;;;8.91;49.90
49759;BME280;35654;46.080;11.118;2023-04-03T06:01:33;99129.34;;;8.94;49.91
49759;BME280;35654;46.080;11.118;2023-04-03T06:04:01;99126.28;;;9.00;50.14
49759;BME280;35654;46.080;11.118;2023-04-03T06:06:50;99126.88;;;8.97;50.18
49759;BME280;35654;46.080;11.118;2023-04-03T06:09:18;99129.59;;;8.97;50.56
49759;BME280;35654;46.080;11.118;2023-04-03T06:11:45;99125.94;;;9.07;50.38
49759;BME280;35654;46.080;11.118;2023-04-03T06:14:12;99128.78;;;9.20;50.03
49759;BME280;35654;46.080;11.118;2023-04-03T06:16:39;99117.97;;;9.34;49.38
49759;BME280;35654;46.080;11.118;2023-04-03T06:19:06;99118.94;;;9.43;49.23
49759;BME280;35654;46.080;11.118;2023-04-03T06:21:33;99127.06;;;9.48;48.96
49759;BME280;35654;46.080;11.118;2023-04-03T06:24:00;99122.94;;;9.51;49.23
49759;BME280;35654;46.080;11.118;2023-04-03T06:26:27;99121.44;;;9.58;49.21
49759;BME280;35654;46.080;11.118;2023-04-03T06:28:54;99120.78;;;9.66;48.22
49759;BME280;35654;46.080;11.118;2023-04-03T06:31:22;99115.78;;;9.73;47.16
49759;BME280;35654;46.080;11.118;2023-04-03T06:33:48;99120.28;;;9.83;47.33
49759;BME280;35654;46.080;11.118;2023-04-03T06:36:15;99115.84;;;9.87;47.32
49759;BME280;35654;46.080;11.118;2023-04-03T06:38:45;99119.84;;;9.94;47.17
49759;BME280;35654;46.080;11.118;2023-04-03T06:41:12;99115.09;;;10.00;47.13
49759;BME280;35654;46.080;11.118;2023-04-03T06:43:39;99116.31;;;10.13;46.75
49759;BME280;35654;46.080;11.118;2023-04-03T06:46:05;99116.66;;;10.25;46.36
49759;BME280;35654;46.080;11.118;2023-04-03T06:48:31;99116.28;;;10.31;46.19
49759;BME280;35654;46.080;11.118;2023-04-03T06:50:58;99120.56;;;10.37;46.15
49759;BME280;35654;46.080;11.118;2023-04-03T06:53:24;99118.31;;;10.39;45.74
49759;BME280;35654;46.080;11.118;2023-04-03T06:55:51;99115.31;;;10.41;45.89
49759;BME280;35654;46.080;11.118;2023-04-03T06:58:18;99112.38;;;10.51;45.95
49759;BME280;35654;46.080;11.118;2023-04-03T07:00:45;99111.59;;;10.64;45.28
49759;BME280;35654;46.080;11.118;2023-04-03T07:03:13;99109.50;;;10.75;45.21
49759;BME280;35654;46.080;11.118;2023-04-03T07:05:40;99112.03;;;10.85;45.03
49759;BME280;35654;46.080;11.118;2023-04-03T07:08:05;99105.25;;;10.96;44.96
49759;BME280;35654;46.080;11.118;2023-04-03T07:10:31;99105.03;;;11.06;44.77
49759;BME280;35654;46.080;11.118;2023-04-03T07:12:56;99105.47;;;11.13;43.98
49759;BME280;35654;46.080;11.118;2023-04-03T07:15:21;99111.66;;;11.19;44.32
49759;BME280;35654;46.080;11.118;2023-04-03T07:17:47;99103.81;;;11.26;43.95
49759;BME280;35654;46.080;11.118;2023-04-03T07:20:12;99098.44;;;11.34;43.90
49759;BME280;35654;46.080;11.118;2023-04-03T07:22:38;99107.66;;;11.52;43.56
49759;BME280;35654;46.080;11.118;2023-04-03T07:25:04;99101.03;;;11.66;43.45
49759;BME280;35654;46.080;11.118;2023-04-03T07:27:34;99096.44;;;11.76;43.15
49759;BME280;35654;46.080;11.118;2023-04-03T07:30:00;99094.59;;;11.85;42.43
49759;BME280;35654;46.080;11.118;2023-04-03T07:32:27;99094.38;;;11.95;42.49
49759;BME280;35654;46.080;11.118;2023-04-03T07:34:53;99089.06;;;11.98;42.04
49759;BME280;35654;46.080;11.118;2023-04-03T07:37:19;99097.22;;;12.12;42.07
49759;BME280;35654;46.080;11.118;2023-04-03T07:39:44;99086.03;;;12.22;41.83
49759;BME280;35654;46.080;11.118;2023-04-03T07:42:12;99080.13;;;12.37;41.31
49759;BME280;35654;46.080;11.118;2023-04-03T07:44:39;99084.13;;;12.53;40.92
49759;BME280;35654;46.080;11.118;2023-04-03T07:47:04;99081.59;;;12.65;40.71
49759;BME280;35654;46.080;11.118;2023-04-03T07:49:30;99080.69;;;12.78;40.66
49759;BME280;35654;46.080;11.118;2023-04-03T07:51:58;99078.47;;;12.89;40.11
49759;BME280;35654;46.080;11.118;2023-04-03T07:54:23;99072.69;;;12.99;39.78
49759;BME280;35654;46.080;11.118;2023-04-03T07:56:50;99068.25;;;13.12;39.16
49759;BME280;35654;46.080;11.118;2023-04-03T07:59:15;99067.47;;;13.20;38.02
49759;BME280;35654;46.080;11.118;2023-04-03T08:01:41;99057.47;;;13.32;38.38
49759;BME280;35654;46.080;11.118;2023-04-03T08:04:07;99058.44;;;13.36;38.61
49759;BME280;35654;46.080;11.118;2023-04-03T08:06:34;99059.59;;;13.53;38.67
49759;BME280;35654;46.080;11.118;2023-04-03T08:09:02;99048.13;;;13.76;36.16
49759;BME280;35654;46.080;11.118;2023-04-03T08:11:29;99043.59;;;13.97;33.08
49759;BME280;35654;46.080;11.118;2023-04-03T08:13:56;99033.53;;;14.01;31.07
49759;BME280;35654;46.080;11.118;2023-04-03T08:16:23;99038.22;;;14.18;32.04
49759;BME280;35654;46.080;11.118;2023-04-03T08:18:52;99030.91;;;14.31;30.52
49759;BME280;35654;46.080;11.118;2023-04-03T08:21:19;99026.53;;;14.47;30.91
49759;BME280;35654;46.080;11.118;2023-04-03T08:23:47;99018.38;;;14.59;28.55
49759;BME280;35654;46.080;11.118;2023-04-03T08:26:18;99018.81;;;14.70;29.54
49759;BME280;35654;46.080;11.118;2023-04-03T08:28:44;99016.72;;;14.67;29.02
49759;BME280;35654;46.080;11.118;2023-04-03T08:31:12;99015.69;;;14.80;28.82
49759;BME280;35654;46.080;11.118;2023-04-03T08:33:39;99012.47;;;14.78;28.81
49759;BME280;35654;46.080;11.118;2023-04-03T08:36:06;99014.91;;;14.79;29.20
49759;BME280;35654;46.080;11.118;2023-04-03T08:38:32;99005.44;;;14.89;28.12
49759;BME280;35654;46.080;11.118;2023-04-03T08:41:11;99006.06;;;14.94;28.00
49759;BME280;35654;46.080;11.118;2023-04-03T08:49:31;98995.81;;;15.53;25.78
49759;BME280;35654;46.080;11.118;2023-04-03T08:51:59;98987.72;;;15.69;25.33
49759;BME280;35654;46.080;11.118;2023-04-03T08:57:14;98992.66;;;15.84;23.33
49759;BME280;35654;46.080;11.118;2023-04-03T08:59:42;98985.03;;;16.14;22.73
49759;BME280;35654;46.080;11.118;2023-04-03T09:02:27;98978.19;;;16.32;22.48
49759;BME280;35654;46.080;11.118;2023-04-03T09:04:54;98975.84;;;16.55;20.98
49759;BME280;35654;46.080;11.118;2023-04-03T09:07:27;98975.50;;;16.68;20.96
49759;BME280;35654;46.080;11.118;2023-04-03T09:09:57;98979.22;;;16.84;20.41
49759;BME280;35654;46.080;11.118;2023-04-03T09:12:32;98967.34;;;16.84;20.16
49759;BME280;35654;46.080;11.118;2023-04-03T09:20:17;98961.44;;;17.10;19.90
49759;BME280;35654;46.080;11.118;2023-04-03T09:22:46;98955.09;;;17.21;20.07
49759;BME280;35654;46.080;11.118;2023-04-03T09:25:31;98955.34;;;17.16;19.71
49759;BME280;35654;46.080;11.118;2023-04-03T09:27:59;98953.47;;;17.32;19.65
49759;BME280;35654;46.080;11.118;2023-04-03T09:30:26;98944.53;;;17.51;19.76
49759;BME280;35654;46.080;11.118;2023-04-03T09:32:54;98942.66;;;17.67;18.99
49759;BME280;35654;46.080;11.118;2023-04-03T09:37:48;98931.19;;;17.81;18.80
49759;BME280;35654;46.080;11.118;2023-04-03T09:40:31;98930.97;;;17.74;18.36
49759;BME280;35654;46.080;11.118;2023-04-03T09:43:02;98931.97;;;17.81;18.14
49759;BME280;35654;46.080;11.118;2023-04-03T09:50:52;98918.75;;;18.18;18.14
49759;BME280;35654;46.080;11.118;2023-04-03T10:01:35;98887.72;;;18.44;17.19
49759;BME280;35654;46.080;11.118;2023-04-03T10:04:11;98892.31;;;18.52;16.33
49759;BME280;35654;46.080;11.118;2023-04-03T10:06:48;98882.66;;;18.62;16.26
49759;BME280;35654;46.080;11.118;2023-04-03T10:09:25;98864.66;;;18.71;16.27
49759;BME280;35654;46.080;11.118;2023-04-03T10:12:09;98865.66;;;18.79;15.95
49759;BME280;35654;46.080;11.118;2023-04-03T10:19:53;98864.22;;;19.04;15.13
49759;BME280;35654;46.080;11.118;2023-04-03T10:46:53;98826.28;;;22.59;12.44
49759;BME280;35654;46.080;11.118;2023-04-03T10:52:06;98810.69;;;27.55;8.82
49759;BME280;35654;46.080;11.118;2023-04-03T10:55:27;98807.56;;;29.82;8.17
49759;BME280;35654;46.080;11.118;2023-04-03T10:57:35;98809.59;;;29.81;7.63
49759;BME280;35654;46.080;11.118;2023-04-03T11:00:04;98801.69;;;30.09;7.06
49759;BME280;35654;46.080;11.118;2023-04-03T11:05:44;98799.78;;;30.22;6.75
49759;BME280;35654;46.080;11.118;2023-04-03T11:08:13;98790.59;;;30.18;6.91
49759;BME280;35654;46.080;11.118;2023-04-03T11:10:42;98780.38;;;30.56;6.79
49759;BME280;35654;46.080;11.118;2023-04-03T11:13:15;98775.66;;;31.68;6.46
49759;BME280;35654;46.080;11.118;2023-04-03T11:15:45;98768.81;;;31.24;6.62
49759;BME280;35654;46.080;11.118;2023-04-03T11:18:19;98766.13;;;30.76;6.97
49759;BME280;35654;46.080;11.118;2023-04-03T11:20:53;98767.50;;;31.00;6.65
49759;BME280;35654;46.080;11.118;2023-04-03T11:23:29;98760.09;;;30.90;6.34
49759;BME280;35654;46.080;11.118;2023-04-03T11:26:01;98748.88;;;30.86;6.44
49759;BME280;35654;46.080;11.118;2023-04-03T11:28:36;98762.03;;;30.48;6.55
49759;BME280;35654;46.080;11.118;2023-04-03T11:31:36;98762.84;;;29.61;6.32
49759;BME280;35654;46.080;11.118;2023-04-03T11:39:51;98736.66;;;29.96;6.58
49759;BME280;35654;46.080;11.118;2023-04-03T11:44:44;98728.22;;;31.85;6.09
49759;BME280;35654;46.080;11.118;2023-04-03T11:47:12;98731.28;;;32.50;5.94
49759;BME280;35654;46.080;11.118;2023-04-03T11:50:05;98735.09;;;31.17;6.11
49759;BME280;35654;46.080;11.118;2023-04-03T12:08:47;98705.66;;;31.94;5.78
49759;BME280;35654;46.080;11.118;2023-04-03T12:11:31;98694.38;;;32.41;5.79
49759;BME280;35654;46.080;11.118;2023-04-03T12:22:05;98672.81;;;31.46;5.47
49759;BME280;35654;46.080;11.118;2023-04-03T12:24:37;98671.31;;;31.41;5.40
49759;BME280;35654;46.080;11.118;2023-04-03T12:30:25;98675.31;;;31.56;4.81
49759;BME280;35654;46.080;11.118;2023-04-03T12:35:27;98669.44;;;31.63;5.03
49759;BME280;35654;46.080;11.118;2023-04-03T12:48:56;98632.97;;;31.78;5.17
49759;BME280;35654;46.080;11.118;2023-04-03T12:54:00;98635.78;;;32.03;5.01
49759;BME280;35654;46.080;11.118;2023-04-03T12:56:29;98617.66;;;31.00;5.00
49759;BME280;35654;46.080;11.118;2023-04-03T13:01:39;98631.75;;;31.54;5.23
49759;BME280;35654;46.080;11.118;2023-04-03T13:04:06;98609.72;;;31.83;4.91
49759;BME280;35654;46.080;11.118;2023-04-03T13:06:42;98615.28;;;31.99;5.06
49759;BME280;35654;46.080;11.118;2023-04-03T13:09:22;98620.00;;;33.14;4.98
49759;BME280;35654;46.080;11.118;2023-04-03T13:11:50;98611.66;;;31.10;4.79
49759;BME280;35654;46.080;11.118;2023-04-03T13:14:21;98603.16;;;31.99;5.10
49759;BME280;35654;46.080;11.118;2023-04-03T13:16:58;98606.13;;;32.30;5.00
49759;BME280;35654;46.080;11.118;2023-04-03T13:19:26;98593.00;;;32.23;4.96
49759;BME280;35654;46.080;11.118;2023-04-03T13:22:04;98603.84;;;31.78;5.13
49759;BME280;35654;46.080;11.118;2023-04-03T13:24:33;98605.25;;;30.81;5.58
49759;BME280;35654;46.080;11.118;2023-04-03T13:27:03;98590.75;;;31.46;5.13
49759;BME280;35654;46.080;11.118;2023-04-03T13:29:32;98604.59;;;32.16;4.87
49759;BME280;35654;46.080;11.118;2023-04-03T13:31:58;98591.00;;;30.72;4.65
49759;BME280;35654;46.080;11.118;2023-04-03T13:34:26;98582.13;;;31.24;4.81
49759;BME280;35654;46.080;11.118;2023-04-03T13:36:56;98585.31;;;31.39;4.79
49759;BME280;35654;46.080;11.118;2023-04-03T13:39:31;98584.13;;;31.99;4.94
49759;BME280;35654;46.080;11.118;2023-04-03T13:41:59;98585.75;;;30.99;5.19
49759;BME280;35654;46.080;11.118;2023-04-03T13:44:31;98576.72;;;31.67;5.18
49759;BME280;35654;46.080;11.118;2023-04-03T13:46:59;98574.47;;;31.62;5.31
49759;BME280;35654;46.080;11.118;2023-04-03T13:49:35;98597.56;;;30.40;5.70
49759;BME280;35654;46.080;11.118;2023-04-03T13:52:17;98584.41;;;31.42;5.48
49759;BME280;35654;46.080;11.118;2023-04-03T13:54:51;98596.31;;;30.83;5.77
49759;BME280;35654;46.080;11.118;2023-04-03T13:57:19;98610.06;;;30.55;5.65
49759;BME280;35654;46.080;11.118;2023-04-03T13:59:44;98592.69;;;29.64;5.84
49759;BME280;35654;46.080;11.118;2023-04-03T14:04:56;98588.72;;;31.34;5.58
49759;BME280;35654;46.080;11.118;2023-04-03T14:07:27;98598.44;;;31.20;5.59
49759;BME280;35654;46.080;11.118;2023-04-03T14:09:55;98590.16;;;31.38;5.25
49759;BME280;35654;46.080;11.118;2023-04-03T14:14:52;98596.06;;;31.44;5.56
49759;BME280;35654;46.080;11.118;2023-04-03T14:17:23;98592.47;;;31.68;5.76
49759;BME280;35654;46.080;11.118;2023-04-03T14:19:53;98595.72;;;31.42;5.74
49759;BME280;35654;46.080;11.118;2023-04-03T14:22:29;98594.28;;;31.62;5.19
49759;BME280;35654;46.080;11.118;2023-04-03T14:24:57;98591.81;;;29.67;5.96
49759;BME280;35654;46.080;11.118;2023-04-03T14:27:27;98591.03;;;30.27;6.16
49759;BME280;35654;46.080;11.118;2023-04-03T14:29:55;98592.09;;;31.16;5.81
49759;BME280;35654;46.080;11.118;2023-04-03T14:32:22;98584.97;;;31.24;5.49
49759;BME280;35654;46.080;11.118;2023-04-03T14:34:50;98587.38;;;30.72;5.72
49759;BME280;35654;46.080;11.118;2023-04-03T14:37:20;98576.44;;;30.74;5.36
49759;BME280;35654;46.080;11.118;2023-04-03T14:39:47;98577.88;;;28.92;6.57
49759;BME280;35654;46.080;11.118;2023-04-03T14:42:16;98584.84;;;29.71;6.27
49759;BME280;35654;46.080;11.118;2023-04-03T14:44:43;98580.78;;;29.72;6.58
49759;BME280;35654;46.080;11.118;2023-04-03T14:47:13;98587.09;;;30.95;6.01
49759;BME280;35654;46.080;11.118;2023-04-03T14:49:39;98597.41;;;31.14;6.12
49759;BME280;35654;46.080;11.118;2023-04-03T14:52:10;98587.19;;;30.50;6.12
49759;BME280;35654;46.080;11.118;2023-04-03T14:54:42;98593.28;;;30.90;6.24
49759;BME280;35654;46.080;11.118;2023-04-03T14:57:08;98591.00;;;32.67;5.61
49759;BME280;35654;46.080;11.118;2023-04-03T14:59:37;98608.25;;;31.91;5.98
49759;BME280;35654;46.080;11.118;2023-04-03T15:02:08;98598.78;;;31.09;6.08
49759;BME280;35654;46.080;11.118;2023-04-03T15:04:49;98600.13;;;30.64;6.04
49759;BME280;35654;46.080;11.118;2023-04-03T15:07:16;98593.31;;;29.87;6.27
49759;BME280;35654;46.080;11.118;2023-04-03T15:09:43;98614.81;;;29.33;6.61